createdAt,value
2022-11-02T00:00:27.576Z,153266.78
2022-11-02T00:02:55.426Z,153275.81
2022-11-02T00:05:24.823Z,153266.78
2022-11-02T00:07:53.286Z,153259.00
2022-11-02T00:10:22.052Z,153261.59
2022-11-02T00:12:50.413Z,153264.16
2022-11-02T00:15:20.011Z,153271.91
2022-11-02T00:17:51.470Z,153269.34
2022-11-02T00:20:21.767Z,153279.69
2022-11-02T00:22:53.032Z,153300.38
2022-11-02T00:25:23.827Z,153300.38
2022-11-02T00:27:51.522Z,153302.97
2022-11-02T00:30:20.926Z,153301.69
2022-11-02T00:32:48.577Z,153306.84
2022-11-02T00:35:16.285Z,153323.69
2022-11-02T00:37:43.976Z,153296.50
2022-11-02T00:40:12.475Z,153322.41
2022-11-02T00:42:40.121Z,153295.19
2022-11-02T00:45:09.197Z,153321.06
2022-11-02T00:47:38.433Z,153327.59
2022-11-02T00:50:07.315Z,153330.19
2022-11-02T00:52:35.054Z,153337.91
2022-11-02T00:55:02.682Z,153345.69
2022-11-02T00:57:30.326Z,153365.13
2022-11-02T00:59:57.995Z,153365.13
2022-11-02T01:02:25.711Z,153357.34
2022-11-02T01:04:54.963Z,153356.03
2022-11-02T01:07:22.636Z,153325.00
2022-11-02T01:09:50.324Z,153269.34
2022-11-02T01:12:17.978Z,153345.69
2022-11-02T01:14:47.259Z,153343.09
2022-11-02T01:17:15.493Z,153354.75
2022-11-02T01:19:43.292Z,153332.72
2022-11-02T01:22:12.920Z,153348.28
2022-11-02T01:24:40.577Z,153325.00
2022-11-02T01:27:08.341Z,153283.56
2022-11-02T01:29:36.005Z,153309.44
2022-11-02T01:32:03.681Z,153313.34
2022-11-02T01:34:31.331Z,153323.69
2022-11-02T01:36:59.022Z,153315.94
2022-11-02T01:39:28.059Z,153319.81
2022-11-02T01:41:55.832Z,153302.97
2022-11-02T01:44:31.789Z,153306.84
2022-11-02T01:47:03.892Z,153292.66
2022-11-02T01:49:34.817Z,153299.09
2022-11-02T01:52:08.071Z,153269.34
2022-11-02T01:54:43.213Z,153279.69
2022-11-02T01:57:13.199Z,153251.22
2022-11-02T01:59:45.685Z,153269.34
2022-11-02T02:02:19.646Z,153264.16
2022-11-02T02:04:52.205Z,153269.34
2022-11-02T02:07:21.303Z,153283.56
2022-11-02T02:09:51.499Z,153287.47
2022-11-02T02:12:20.662Z,153283.56
2022-11-02T02:14:48.560Z,153297.78
2022-11-02T02:17:34.281Z,153308.16
2022-11-02T02:20:08.755Z,153309.44
2022-11-02T02:23:07.538Z,153317.22
2022-11-02T02:26:13.455Z,153308.16
2022-11-02T02:28:48.665Z,153295.19
2022-11-02T02:31:22.122Z,153274.50
2022-11-02T02:33:56.646Z,153269.34
2022-11-02T02:36:30.521Z,153266.78
2022-11-02T02:39:03.436Z,153259.00
2022-11-02T02:41:39.146Z,153248.63
2022-11-02T02:44:12.904Z,153253.81
2022-11-02T02:46:46.671Z,153234.38
2022-11-02T02:49:20.364Z,153220.19
2022-11-02T02:51:48.469Z,153212.41
2022-11-02T02:54:20.640Z,153208.50
2022-11-02T02:56:52.249Z,153203.31
2022-11-02T02:59:26.636Z,153207.19
2022-11-02T03:01:56.841Z,153202.00
2022-11-02T03:04:24.687Z,153196.88
2022-11-02T03:06:55.777Z,153189.09
2022-11-02T03:09:30.604Z,153194.25
2022-11-02T03:12:08.246Z,153190.34
2022-11-02T03:14:51.073Z,153205.91
2022-11-02T03:17:21.614Z,153202.00
2022-11-02T03:19:56.153Z,153195.53
2022-11-02T03:22:31.163Z,153207.19
2022-11-02T03:25:04.442Z,153198.13
2022-11-02T03:27:41.044Z,153194.25
2022-11-02T03:30:14.432Z,153173.56
2022-11-02T03:32:51.347Z,153208.50
2022-11-02T03:35:24.365Z,153209.81
2022-11-02T03:37:57.363Z,153221.47
2022-11-02T03:40:30.397Z,153236.97
2022-11-02T03:43:01.120Z,153229.25
2022-11-02T03:45:37.304Z,153222.75
2022-11-02T03:48:08.393Z,153154.16
2022-11-02T03:50:39.410Z,153204.59
2022-11-02T03:53:10.869Z,153181.31
2022-11-02T03:55:43.736Z,153190.34
2022-11-02T03:58:12.749Z,153183.91
2022-11-02T04:00:48.869Z,153160.63
2022-11-02T04:03:18.584Z,153196.88
2022-11-02T04:05:46.416Z,153165.81
2022-11-02T04:08:24.479Z,153191.69
2022-11-02T04:11:11.408Z,153185.22
2022-11-02T04:13:56.664Z,153165.81
2022-11-02T04:16:28.249Z,153159.34
2022-11-02T04:19:13.918Z,153159.34
2022-11-02T04:22:01.765Z,153160.63
2022-11-02T04:24:47.039Z,153142.53
2022-11-02T04:27:19.729Z,153142.53
2022-11-02T04:29:48.566Z,153132.16
2022-11-02T04:32:37.868Z,153120.50
2022-11-02T04:35:05.346Z,153112.78
2022-11-02T04:37:50.701Z,153130.88
2022-11-02T04:40:18.583Z,153124.44
2022-11-02T04:42:46.953Z,153119.25
2022-11-02T04:45:14.781Z,153121.81
2022-11-02T04:47:43.809Z,153117.91
2022-11-02T04:50:12.690Z,153126.97
2022-11-02T04:52:40.437Z,153138.59
2022-11-02T04:55:09.164Z,153145.09
2022-11-02T04:57:36.981Z,153145.09
2022-11-02T05:00:07.322Z,153158.03
2022-11-02T05:02:35.070Z,153159.34
2022-11-02T05:05:06.133Z,153141.19
2022-11-02T05:07:33.842Z,153139.94
2022-11-02T05:10:01.630Z,153134.75
2022-11-02T05:12:29.514Z,153114.06
2022-11-02T05:14:57.200Z,153137.34
2022-11-02T05:17:24.916Z,153156.75
2022-11-02T05:19:52.699Z,153147.72
2022-11-02T05:22:22.457Z,153164.47
2022-11-02T05:24:50.071Z,153165.81
2022-11-02T05:27:17.844Z,153168.38
2022-11-02T05:29:45.464Z,153161.88
2022-11-02T05:32:13.444Z,153173.56
2022-11-02T05:34:41.139Z,153160.63
2022-11-02T05:37:08.764Z,153152.84
2022-11-02T05:39:38.201Z,153147.72
2022-11-02T05:42:05.952Z,153158.03
2022-11-02T05:44:33.595Z,153159.34
2022-11-02T05:47:01.505Z,153155.44
2022-11-02T05:49:29.170Z,153136.06
2022-11-02T05:51:56.841Z,153161.88
2022-11-02T05:54:25.436Z,153121.81
2022-11-02T05:56:54.413Z,153126.97
2022-11-02T05:59:22.214Z,153125.69
2022-11-02T06:01:50.026Z,153130.88
2022-11-02T06:04:17.750Z,153119.25
2022-11-02T06:06:45.787Z,153116.66
2022-11-02T06:09:13.400Z,153101.16
2022-11-02T06:11:41.428Z,153098.56
2022-11-02T06:14:10.626Z,153106.28
2022-11-02T06:16:38.366Z,153075.28
2022-11-02T06:19:06.056Z,153105.00
2022-11-02T06:21:34.013Z,153090.78
2022-11-02T06:24:01.831Z,153097.22
2022-11-02T06:26:29.615Z,153055.88
2022-11-02T06:28:57.246Z,153068.78
2022-11-02T06:31:26.252Z,153081.72
2022-11-02T06:33:54.019Z,153081.72
2022-11-02T06:36:21.849Z,153080.41
2022-11-02T06:38:49.496Z,153057.13
2022-11-02T06:41:17.288Z,153075.28
2022-11-02T06:43:44.940Z,153090.78
2022-11-02T06:46:12.674Z,153090.78
2022-11-02T06:48:41.849Z,153041.63
2022-11-02T06:51:09.511Z,153106.28
2022-11-02T06:53:37.149Z,153107.59
2022-11-02T06:56:04.984Z,153107.59
2022-11-02T06:58:32.641Z,153097.22
2022-11-02T07:01:02.378Z,153114.06
2022-11-02T07:03:31.238Z,153095.97
2022-11-02T07:06:00.846Z,153114.06
2022-11-02T07:08:29.454Z,153077.81
2022-11-02T07:10:57.980Z,153095.97
2022-11-02T07:13:25.822Z,153098.56
2022-11-02T07:15:54.334Z,153102.41
2022-11-02T07:18:22.306Z,153058.47
2022-11-02T07:20:50.374Z,153097.22
2022-11-02T07:23:23.536Z,153101.16
2022-11-02T07:25:51.229Z,153084.31
2022-11-02T07:28:18.966Z,153042.91
2022-11-02T07:30:46.703Z,153094.63
2022-11-02T07:33:14.375Z,153101.16
2022-11-02T07:35:42.412Z,153103.69
2022-11-02T07:38:10.835Z,153099.81
2022-11-02T07:40:40.088Z,153103.69
2022-11-02T07:43:08.579Z,153107.59
2022-11-02T07:45:36.591Z,153090.78
2022-11-02T07:48:04.409Z,153089.47
2022-11-02T07:50:32.159Z,153095.97
2022-11-02T07:53:00.621Z,153095.97
2022-11-02T07:55:33.534Z,153119.25
2022-11-02T07:58:03.882Z,153119.25
2022-11-02T08:00:34.100Z,153121.81
2022-11-02T08:03:03.738Z,153128.28
2022-11-02T08:05:33.403Z,153138.59
2022-11-02T08:08:02.857Z,153155.44
2022-11-02T08:10:37.036Z,153165.81
2022-11-02T08:13:09.401Z,153133.47
2022-11-02T08:15:37.275Z,153132.16
2022-11-02T08:18:06.684Z,153147.72
2022-11-02T08:20:36.378Z,153143.78
2022-11-02T08:23:04.937Z,153171.00
2022-11-02T08:25:33.036Z,153187.75
2022-11-02T08:28:01.744Z,153217.59
2022-11-02T08:30:32.466Z,153202.00
2022-11-02T08:33:04.589Z,153186.50
2022-11-02T08:35:32.268Z,153178.72
2022-11-02T08:38:00.835Z,153207.19
2022-11-02T08:40:28.637Z,153242.16
2022-11-02T08:43:00.152Z,153212.41
2022-11-02T08:45:32.314Z,153215.00
2022-11-02T08:48:08.378Z,153229.25
2022-11-02T08:50:36.479Z,153209.81
2022-11-02T08:53:04.585Z,153239.56
2022-11-02T08:55:32.494Z,153259.00
2022-11-02T08:58:01.610Z,153224.06
2022-11-02T09:00:31.669Z,153270.63
2022-11-02T09:03:01.061Z,153266.78
2022-11-02T09:05:31.580Z,153239.56
2022-11-02T09:08:00.837Z,153256.41
2022-11-02T09:10:29.716Z,153277.09
2022-11-02T09:12:57.801Z,153248.63
2022-11-02T09:15:25.411Z,153264.16
2022-11-02T09:17:53.008Z,153269.34
2022-11-02T09:20:21.946Z,153262.84
2022-11-02T09:22:51.024Z,153315.94
2022-11-02T09:25:19.092Z,153314.63
2022-11-02T09:27:49.443Z,153277.09
2022-11-02T09:30:20.801Z,153296.50
2022-11-02T09:32:55.051Z,153345.69
2022-11-02T09:35:23.170Z,153358.63
2022-11-02T09:37:52.569Z,153375.44
2022-11-02T09:40:22.716Z,153354.75
2022-11-02T09:43:00.057Z,153397.47
2022-11-02T09:45:28.846Z,153407.78
2022-11-02T09:48:20.981Z,153427.22
2022-11-02T09:50:59.236Z,153464.78
2022-11-02T09:53:40.630Z,153489.34
2022-11-02T09:56:10.076Z,153541.16
2022-11-02T09:58:40.617Z,153484.22
2022-11-02T10:01:25.206Z,153563.19
2022-11-02T10:04:08.050Z,153624.09
2022-11-02T10:06:38.599Z,153569.69
2022-11-02T10:09:13.759Z,153587.81
2022-11-02T10:11:48.615Z,153611.13
2022-11-02T10:14:22.884Z,153583.94
2022-11-02T10:16:58.782Z,153589.13
2022-11-02T10:19:30.295Z,153581.34
2022-11-02T10:21:59.647Z,153535.97
2022-11-02T10:24:35.867Z,153596.88
2022-11-02T10:27:14.262Z,153624.09
2022-11-02T10:29:49.682Z,153621.50
2022-11-02T10:32:18.088Z,153647.41
2022-11-02T10:34:58.700Z,153637.03
2022-11-02T10:37:48.037Z,153578.75
2022-11-02T10:40:32.574Z,153571.00
2022-11-02T10:43:12.157Z,153547.59
2022-11-02T10:46:11.378Z,153558.00
2022-11-02T10:48:45.258Z,153576.16
2022-11-02T10:51:14.818Z,153594.31
2022-11-02T10:53:45.245Z,153631.84
2022-11-02T10:56:19.740Z,153596.88
2022-11-02T10:58:53.842Z,153593.00
2022-11-02T11:01:21.593Z,153608.53
2022-11-02T11:03:58.110Z,153683.66
2022-11-02T11:06:28.513Z,153712.16
2022-11-02T11:09:00.943Z,153703.09
2022-11-02T11:11:32.549Z,153710.88
2022-11-02T11:16:54.172Z,153745.88
2022-11-02T11:22:03.000Z,153743.28
2022-11-02T11:24:32.532Z,153744.53
2022-11-02T11:27:16.848Z,153760.13
2022-11-02T11:29:53.376Z,153756.19
2022-11-02T11:32:29.577Z,153652.59
2022-11-02T11:35:01.260Z,153732.88
2022-11-02T11:37:29.234Z,153788.59
2022-11-02T11:40:01.685Z,153770.47
2022-11-02T11:42:35.466Z,153813.22
2022-11-02T11:45:06.786Z,153841.75
2022-11-02T11:47:38.017Z,153802.84
2022-11-02T11:50:14.184Z,153789.91
2022-11-02T11:53:10.687Z,153769.19
2022-11-02T11:55:47.914Z,153808.03
2022-11-02T11:58:20.059Z,153867.66
2022-11-02T12:01:09.427Z,153861.16
2022-11-02T12:03:53.391Z,153888.44
2022-11-02T12:06:30.962Z,153853.41
2022-11-02T12:09:05.896Z,153902.72
2022-11-02T12:11:49.085Z,153945.44
2022-11-02T12:14:34.204Z,153922.13
2022-11-02T12:17:27.603Z,153984.38
2022-11-02T12:20:20.318Z,153992.16
2022-11-02T12:22:59.366Z,154060.84
2022-11-02T12:25:45.561Z,154006.38
2022-11-02T12:28:38.740Z,153940.31
2022-11-02T12:31:20.025Z,154068.66
2022-11-02T12:34:04.589Z,154028.44
2022-11-02T12:37:27.440Z,154114.06
2022-11-02T12:39:55.217Z,154067.31
2022-11-02T12:42:29.046Z,154129.59
2022-11-02T12:45:18.673Z,154059.56
2022-11-02T12:47:58.856Z,154198.41
2022-11-02T12:50:48.035Z,154181.53
2022-11-02T12:53:29.963Z,154097.19
2022-11-02T12:56:01.678Z,153927.31
2022-11-02T12:58:31.496Z,154085.50
2022-11-02T13:01:12.336Z,154168.47
2022-11-02T13:03:52.398Z,154134.78
2022-11-02T13:06:26.477Z,154085.50
2022-11-02T13:08:57.746Z,154047.91
2022-11-02T13:11:31.804Z,154020.66
2022-11-02T13:14:00.829Z,154082.91
2022-11-02T13:16:39.822Z,154003.81
2022-11-02T13:19:16.718Z,153999.91
2022-11-02T13:21:49.548Z,154114.06
2022-11-02T13:24:25.095Z,154037.50
2022-11-02T13:27:07.401Z,154029.72
2022-11-02T13:29:46.078Z,154015.50
2022-11-02T13:32:22.311Z,154158.13
2022-11-02T13:34:55.001Z,154171.09
2022-11-02T13:37:27.579Z,154103.66
2022-11-02T13:39:59.139Z,154145.13
2022-11-02T13:42:46.755Z,154174.97
2022-11-02T13:45:30.166Z,154220.41
2022-11-02T13:48:30.576Z,154194.47
2022-11-02T13:51:05.571Z,154132.19
2022-11-02T13:53:37.668Z,154063.44
2022-11-02T13:56:10.331Z,154129.59
2022-11-02T13:58:42.211Z,154111.44
2022-11-02T14:01:12.663Z,154060.84
2022-11-02T14:03:50.074Z,154056.97
2022-11-02T14:06:20.638Z,154032.31
2022-11-02T14:08:52.857Z,154127.00
2022-11-02T14:11:48.040Z,154095.84
2022-11-02T14:14:25.016Z,154114.06
2022-11-02T14:17:04.252Z,154133.47
2022-11-02T14:19:53.052Z,154119.19
2022-11-02T14:22:22.318Z,154108.84
2022-11-02T14:25:08.299Z,154103.66
2022-11-02T14:27:36.808Z,154014.16
2022-11-02T14:30:04.987Z,154042.72
2022-11-02T14:32:50.169Z,153986.97
2022-11-02T14:35:30.807Z,153889.72
2022-11-02T14:38:20.825Z,153926.03
2022-11-02T14:40:55.203Z,153828.75
2022-11-02T14:44:05.809Z,153835.28
2022-11-02T14:46:56.537Z,153782.13
2022-11-02T14:49:27.956Z,153817.09
2022-11-02T14:52:03.899Z,153725.16
2022-11-02T14:54:39.716Z,153761.38
2022-11-02T14:57:21.715Z,153792.50
2022-11-02T14:59:53.321Z,153773.06
2022-11-02T15:02:25.483Z,153810.63
2022-11-02T15:04:55.494Z,153681.06
2022-11-02T15:07:28.204Z,153692.72
2022-11-02T15:09:59.352Z,153741.94
2022-11-02T15:12:38.818Z,153694.03
2022-11-02T15:15:30.793Z,153683.66
2022-11-02T15:18:21.645Z,153691.44
2022-11-02T15:21:26.681Z,153670.72
2022-11-02T15:24:16.606Z,153650.00
2022-11-02T15:26:55.884Z,153598.19
2022-11-02T15:29:36.954Z,153525.63
2022-11-02T15:32:07.232Z,153545.06
2022-11-02T15:34:37.995Z,153569.69
2022-11-02T15:37:06.554Z,153552.81
2022-11-02T15:39:34.646Z,153538.56
2022-11-02T15:42:08.622Z,153535.97
2022-11-02T15:45:14.152Z,153494.53
2022-11-02T15:48:02.527Z,153463.44
2022-11-02T15:50:47.292Z,153476.41
2022-11-02T15:53:36.825Z,153453.13
2022-11-02T15:56:17.089Z,153412.97
2022-11-02T15:59:03.744Z,153402.63
2022-11-02T16:01:31.627Z,153389.69
2022-11-02T16:04:02.924Z,153378.03
2022-11-02T16:06:33.813Z,153358.63
2022-11-02T16:09:02.910Z,153319.81
2022-11-02T16:11:31.968Z,153297.78
2022-11-02T16:14:17.473Z,153216.28
2022-11-02T16:16:49.101Z,153176.13
2022-11-02T16:19:20.082Z,153147.72
2022-11-02T16:21:48.291Z,153168.38
2022-11-02T16:24:16.690Z,153147.72
2022-11-02T16:26:47.300Z,153145.09
2022-11-02T16:29:31.261Z,153018.38
2022-11-02T16:31:59.096Z,153071.38
2022-11-02T16:34:30.981Z,153013.19
2022-11-02T16:37:00.029Z,152970.50
2022-11-02T16:39:30.384Z,152967.97
2022-11-02T16:42:00.415Z,152979.59
2022-11-02T16:44:31.493Z,152951.16
2022-11-02T16:47:01.390Z,152921.38
2022-11-02T16:49:29.693Z,152874.84
2022-11-02T16:51:59.359Z,152810.25
2022-11-02T16:54:41.193Z,152806.34
2022-11-02T16:57:16.939Z,152748.19
2022-11-02T16:59:52.246Z,152732.66
2022-11-02T17:02:26.008Z,152719.75
2022-11-02T17:05:02.530Z,152715.91
2022-11-02T17:07:36.889Z,152701.69
2022-11-02T17:10:07.114Z,152712.00
2022-11-02T17:12:38.049Z,152684.88
2022-11-02T17:15:16.975Z,152677.13
2022-11-02T17:17:45.320Z,152664.22
2022-11-02T17:20:22.059Z,152664.22
2022-11-02T17:22:52.807Z,152643.56
2022-11-02T17:25:22.975Z,152647.41
2022-11-02T17:27:51.034Z,152651.28
2022-11-02T17:30:47.543Z,152656.44
2022-11-02T17:33:25.045Z,152680.97
2022-11-02T17:35:55.029Z,152721.03
2022-11-02T17:38:26.527Z,152731.38
2022-11-02T17:40:54.862Z,152710.72
2022-11-02T17:43:23.509Z,152737.84
2022-11-02T17:45:59.621Z,152727.53
2022-11-02T17:48:28.892Z,152739.16
2022-11-02T17:50:59.580Z,152752.06
2022-11-02T17:53:27.514Z,152780.47
2022-11-02T17:55:56.193Z,152776.56
2022-11-02T17:58:23.834Z,152754.63
2022-11-02T18:00:53.987Z,152726.22
2022-11-02T18:03:29.792Z,152726.22
2022-11-02T18:06:00.346Z,152702.94
2022-11-02T18:08:28.513Z,152690.06
2022-11-02T18:10:56.718Z,152690.06
2022-11-02T18:13:25.206Z,152687.47
2022-11-02T18:15:52.838Z,152708.13
2022-11-02T18:18:20.553Z,152684.88
2022-11-02T18:20:49.586Z,152709.41
2022-11-02T18:23:19.718Z,152682.28
2022-11-02T18:25:47.960Z,152690.06
2022-11-02T18:28:15.594Z,152687.47
2022-11-02T18:30:44.207Z,152752.06
2022-11-02T18:33:13.715Z,152718.44
2022-11-02T18:35:42.265Z,152715.91
2022-11-02T18:38:11.642Z,152776.56
2022-11-02T18:40:39.310Z,152759.81
2022-11-02T18:43:07.312Z,152752.06
2022-11-02T18:45:35.203Z,152762.41
2022-11-02T18:48:03.172Z,152739.16
2022-11-02T18:50:31.116Z,152728.78
2022-11-02T18:52:58.826Z,152745.59
2022-11-02T18:55:27.794Z,152744.28
2022-11-02T18:57:56.511Z,152757.22
2022-11-02T19:00:24.179Z,152763.69
2022-11-02T19:02:51.902Z,152777.91
2022-11-02T19:05:37.246Z,152801.16
2022-11-02T19:08:22.504Z,152795.97
2022-11-02T19:10:52.193Z,152798.56
2022-11-02T19:13:19.834Z,152830.91
2022-11-02T19:15:47.502Z,152832.22
2022-11-02T19:18:15.172Z,152811.56
2022-11-02T19:20:42.855Z,152807.59
2022-11-02T19:23:11.224Z,152802.44
2022-11-02T19:25:39.012Z,152768.84
2022-11-02T19:28:09.413Z,152774.03
2022-11-02T19:30:38.553Z,152759.81
2022-11-02T19:33:06.567Z,152770.13
2022-11-02T19:35:35.590Z,152785.66
2022-11-02T19:38:03.316Z,152790.78
2022-11-02T19:40:31.001Z,152806.34
2022-11-02T19:42:58.647Z,152794.69
2022-11-02T19:45:27.880Z,152799.88
2022-11-02T19:47:55.539Z,152811.56
2022-11-02T19:50:23.170Z,152810.25
2022-11-02T19:52:50.844Z,152851.59
2022-11-02T19:55:18.490Z,152823.19
2022-11-02T19:57:46.139Z,152850.31
2022-11-02T20:00:15.163Z,152833.50
2022-11-02T20:02:44.294Z,152830.91
2022-11-02T20:05:14.546Z,152801.16
2022-11-02T20:07:42.266Z,152805.00
2022-11-02T20:10:10.978Z,152861.94
2022-11-02T20:12:38.697Z,152842.53
2022-11-02T20:15:07.915Z,152842.53
2022-11-02T20:17:52.048Z,152823.19
2022-11-02T20:20:24.843Z,152806.34
2022-11-02T20:22:52.578Z,152779.16
2022-11-02T20:25:20.211Z,152795.97
2022-11-02T20:27:47.800Z,152808.97
2022-11-02T20:30:15.480Z,152801.16
2022-11-02T20:32:43.560Z,152814.09
2022-11-02T20:35:13.758Z,152794.69
2022-11-02T20:37:43.087Z,152797.28
2022-11-02T20:40:11.840Z,152810.25
2022-11-02T20:42:39.550Z,152824.47
2022-11-02T20:45:08.371Z,152833.50
2022-11-02T20:47:36.048Z,152821.88
2022-11-02T20:50:03.744Z,152811.56
2022-11-02T20:52:31.408Z,152832.22
2022-11-02T20:55:00.437Z,152829.63
2022-11-02T20:57:28.920Z,152807.59
2022-11-02T20:59:56.553Z,152821.88
2022-11-02T21:02:24.718Z,152832.22
2022-11-02T21:04:52.506Z,152819.28
2022-11-02T21:07:20.141Z,152806.34
2022-11-02T21:09:47.897Z,152821.88
2022-11-02T21:12:34.241Z,152833.50
2022-11-02T21:15:02.427Z,152843.88
2022-11-02T21:17:30.231Z,152842.53
2022-11-02T21:20:08.110Z,152843.88
2022-11-02T21:22:45.778Z,152845.13
2022-11-02T21:25:13.457Z,152855.50
2022-11-02T21:27:42.501Z,152819.28
2022-11-02T21:30:11.175Z,152832.22
2022-11-02T21:32:38.866Z,152830.91
2022-11-02T21:35:07.570Z,152830.91
2022-11-02T21:37:35.267Z,152812.84
2022-11-02T21:40:04.210Z,152798.56
2022-11-02T21:42:31.863Z,152806.34
2022-11-02T21:45:00.957Z,152771.44
2022-11-02T21:47:34.053Z,152837.38
2022-11-02T21:50:02.662Z,152834.81
2022-11-02T21:52:30.301Z,152783.06
2022-11-02T21:54:57.921Z,152806.34
2022-11-02T21:57:25.598Z,152798.56
2022-11-02T21:59:53.234Z,152777.91
2022-11-02T22:02:22.502Z,152761.09
2022-11-02T22:04:53.627Z,152772.72
2022-11-02T22:07:21.472Z,152788.25
2022-11-02T22:09:49.126Z,152785.66
2022-11-02T22:12:34.157Z,152764.94
2022-11-02T22:15:01.856Z,152741.69
2022-11-02T22:20:18.498Z,152752.06
2022-11-02T22:22:46.340Z,152724.94
2022-11-02T22:25:13.953Z,152710.72
2022-11-02T22:27:41.746Z,152696.50
2022-11-02T22:30:10.258Z,152675.84
2022-11-02T22:32:39.294Z,152696.50
2022-11-02T22:35:08.174Z,152700.38
2022-11-02T22:37:53.541Z,152680.97
2022-11-02T22:40:21.192Z,152671.94
2022-11-02T22:42:48.829Z,152671.94
2022-11-02T22:45:17.031Z,152674.53
2022-11-02T22:47:46.069Z,152674.53
2022-11-02T22:50:13.776Z,152678.44
2022-11-02T22:52:41.392Z,152696.50
2022-11-02T22:55:10.605Z,152692.59
2022-11-02T22:57:38.259Z,152705.53
2022-11-02T23:00:07.031Z,152687.47
2022-11-02T23:02:34.688Z,152717.16
2022-11-02T23:05:03.754Z,152709.41
2022-11-02T23:07:31.446Z,152724.94
2022-11-02T23:09:59.100Z,152715.91
2022-11-02T23:12:25.737Z,152710.72
2022-11-02T23:14:53.393Z,152721.03
2022-11-02T23:17:21.061Z,152722.34
2022-11-02T23:19:47.704Z,152710.72
2022-11-02T23:22:34.609Z,152697.78
2022-11-02T23:25:14.112Z,152706.81
2022-11-02T23:28:03.085Z,152709.41
2022-11-02T23:30:50.445Z,152702.94
2022-11-02T23:33:18.801Z,152724.94
2022-11-02T23:36:04.128Z,152704.22
2022-11-02T23:38:47.041Z,152691.31
2022-11-02T23:41:14.742Z,152680.97
2022-11-02T23:43:42.415Z,152673.25
2022-11-02T23:46:10.114Z,152680.97
2022-11-02T23:48:37.732Z,152675.84
2022-11-02T23:51:23.337Z,152650.00
2022-11-02T23:54:09.884Z,152619.00
2022-11-02T23:56:46.580Z,152661.63
2022-11-02T23:59:17.004Z,152687.47
